Time;durP1;ratioP1;P1;durP2;ratioP2;P2;SDS_P1;SDS_P2;PMS_P1;PMS_P2;Temp;Humidity;BMP_temperature;BMP_pressure;BME280_temperature;BME280_humidity;BME280_pressure;Samples;Min_cycle;Max_cycle;Signal;HPM_P1;HPM_P2
2022/04/09 00:00:47;;;;;;;6.50;4.80;;;;;;;5.97;81.23;96783.89;2255515;79;20888;-79
2022/04/09 00:03:50;;;;;;;11.80;6.73;;;;;;;5.94;81.15;96795.99;2255216;79;20895;-79
2022/04/09 00:06:50;;;;;;;11.13;7.67;;;;;;;5.92;80.95;96779.16;2255289;79;21061;-79
2022/04/09 00:09:50;;;;;;;6.70;5.47;;;;;;;5.97;81.25;96764.91;2255351;79;20884;-78
2022/04/09 00:12:51;;;;;;;7.73;4.43;;;;;;;6.00;80.97;96784.32;2255014;79;20907;-79
2022/04/09 00:15:51;;;;;;;5.70;4.30;;;;;;;6.02;80.85;96785.17;2255086;79;20903;-78
2022/04/09 00:18:52;;;;;;;5.27;4.67;;;;;;;6.08;81.01;96777.85;2255182;79;20884;-79
2022/04/09 00:21:52;;;;;;;6.33;5.20;;;;;;;6.14;81.03;96760.55;2254664;79;20920;-78
2022/04/09 00:24:52;;;;;;;5.47;3.70;;;;;;;6.20;80.93;96759.23;2254995;79;20974;-78
2022/04/09 00:27:53;;;;;;;5.20;3.43;;;;;;;6.21;80.47;96754.48;2254991;79;21272;-78
2022/04/09 00:30:54;;;;;;;5.60;4.57;;;;;;;6.23;80.65;96742.81;2254702;79;20913;-77
2022/04/09 00:33:57;;;;;;;5.50;4.57;;;;;;;6.26;80.50;96739.78;2254914;79;20914;-78
2022/04/09 00:36:57;;;;;;;8.27;4.83;;;;;;;6.29;80.07;96737.17;2254894;79;20887;-77
2022/04/09 00:39:57;;;;;;;5.73;4.13;;;;;;;6.30;80.32;96732.85;2255149;79;21008;-78
2022/04/09 00:42:58;;;;;;;4.47;3.60;;;;;;;6.28;80.26;96725.09;2255039;79;21247;-78
2022/04/09 00:45:58;;;;;;;5.17;4.03;;;;;;;6.27;80.22;96723.36;2255142;79;20883;-78
2022/04/09 00:48:59;;;;;;;4.33;3.60;;;;;;;6.29;80.26;96718.17;2255038;79;20864;-78
2022/04/09 00:51:59;;;;;;;3.93;3.27;;;;;;;6.27;80.05;96727.25;2254900;79;20947;-78
2022/04/09 00:54:59;;;;;;;4.13;3.50;;;;;;;6.28;80.46;96741.92;2255207;79;20962;-78
2022/04/09 00:58:00;;;;;;;4.63;3.40;;;;;;;6.30;80.38;96740.19;2254891;79;21278;-79
2022/04/09 01:01:00;;;;;;;4.87;3.43;;;;;;;6.30;80.44;96735.01;2255010;79;21291;-78
2022/04/09 01:04:01;;;;;;;4.20;3.80;;;;;;;6.31;80.30;96723.77;2255009;79;20969;-78
2022/04/09 01:07:01;;;;;;;5.33;3.50;;;;;;;6.34;80.37;96708.64;2255124;79;20895;-79
2022/04/09 01:10:01;;;;;;;3.83;3.10;;;;;;;6.38;80.21;96704.73;2255226;79;20885;-79
2022/04/09 01:13:02;;;;;;;5.30;3.30;;;;;;;6.39;79.93;96700.41;2255051;79;21325;-79
2022/04/09 01:16:02;;;;;;;5.97;4.20;;;;;;;6.41;79.62;96696.52;2255082;79;20879;-79
2022/04/09 01:19:03;;;;;;;5.20;3.57;;;;;;;6.35;79.65;96703.45;2255081;79;21227;-78
2022/04/09 01:22:03;;;;;;;6.70;4.47;;;;;;;6.32;79.75;96707.36;2255026;79;20931;-78
2022/04/09 01:25:03;;;;;;;4.43;4.03;;;;;;;6.20;79.96;96715.20;2255100;79;20974;-80
2022/04/09 01:28:04;;;;;;;6.93;4.33;;;;;;;6.20;79.96;96715.20;2254981;79;20852;-79
2022/04/09 01:31:04;;;;;;;6.57;5.13;;;;;;;6.16;80.14;96722.98;2254843;79;20912;-79
2022/04/09 01:34:05;;;;;;;5.17;4.30;;;;;;;6.19;80.19;96715.20;2255293;79;20903;-79
2022/04/09 01:37:05;;;;;;;5.10;4.27;;;;;;;6.18;80.25;96713.05;2254946;79;21243;-81
2022/04/09 01:40:05;;;;;;;5.13;3.97;;;;;;;6.19;80.46;96717.80;2255104;79;20902;-78
2022/04/09 01:43:06;;;;;;;4.90;3.20;;;;;;;6.20;80.55;96719.08;2255177;79;20848;-78
2022/04/09 01:46:08;;;;;;;3.97;3.30;;;;;;;6.22;80.37;96710.87;2251941;79;20918;-81
2022/04/09 01:49:09;;;;;;;4.77;3.23;;;;;;;6.23;80.36;96704.82;2255182;79;20899;-81
2022/04/09 01:52:09;;;;;;;4.00;3.20;;;;;;;6.20;80.19;96716.49;2255132;79;20927;-81
2022/04/09 01:55:09;;;;;;;3.50;2.80;;;;;;;6.21;80.09;96716.92;2254580;79;20896;-81
2022/04/09 01:58:10;;;;;;;5.47;3.07;;;;;;;6.25;80.12;96713.44;2255087;79;20844;-81
2022/04/09 02:01:10;;;;;;;4.17;3.20;;;;;;;6.29;80.31;96705.22;2255059;79;21267;-81
2022/04/09 02:04:11;;;;;;;4.33;3.30;;;;;;;6.28;80.20;96703.06;2254895;79;20915;-81
2022/04/09 02:07:12;;;;;;;4.83;3.53;;;;;;;6.31;80.23;96708.23;2255170;79;20907;-81
2022/04/09 02:10:13;;;;;;;3.53;3.10;;;;;;;6.31;80.10;96704.34;2254923;79;21268;-81
2022/04/09 02:13:14;;;;;;;4.83;3.73;;;;;;;6.32;80.08;96712.54;2254874;79;20951;-81
2022/04/09 02:16:14;;;;;;;3.67;3.37;;;;;;;6.36;80.01;96711.66;2254938;79;20983;-80
2022/04/09 02:19:15;;;;;;;4.07;3.30;;;;;;;6.37;80.03;96710.78;2254894;79;20907;-80
2022/04/09 02:22:19;;;;;;;5.77;3.50;;;;;;;6.39;79.92;96693.93;2255130;79;20943;-80
2022/04/09 02:25:18;;;;;;;7.57;5.97;;;;;;;6.38;79.95;96678.82;2254758;79;21011;-80
2022/04/09 02:28:19;;;;;;;10.83;6.50;;;;;;;6.33;79.91;96680.58;2254828;79;20883;-80
2022/04/09 02:31:20;;;;;;;6.23;5.07;;;;;;;6.31;80.15;96670.66;2253635;79;20904;-80
2022/04/09 02:34:20;;;;;;;7.50;4.87;;;;;;;6.22;80.15;96666.83;2251934;79;21280;-80
2022/04/09 02:37:20;;;;;;;5.60;3.90;;;;;;;6.16;80.27;96659.53;2252051;79;21062;-80
2022/04/09 02:40:21;;;;;;;5.07;4.00;;;;;;;6.11;80.29;96647.03;2252308;79;20884;-80
2022/04/09 02:43:21;;;;;;;5.23;4.10;;;;;;;6.01;80.42;96625.04;2252144;79;21259;-80
2022/04/09 02:46:25;;;;;;;3.60;3.30;;;;;;;5.91;80.56;96596.19;2252278;79;20927;-80
2022/04/09 02:49:24;;;;;;;3.83;2.80;;;;;;;5.84;81.31;96553.48;2252127;79;21299;-81
2022/04/09 02:52:27;;;;;;;3.63;2.87;;;;;;;5.73;81.17;96576.84;2252286;79;20919;-80
2022/04/09 02:55:25;;;;;;;2.87;2.67;;;;;;;5.67;81.41;96600.16;2252347;79;20991;-80
2022/04/09 02:58:25;;;;;;;3.80;2.43;;;;;;;5.69;81.47;96595.41;2252347;79;20891;-80
2022/04/09 03:01:27;;;;;;;4.87;2.50;;;;;;;5.68;81.39;96616.98;2252569;79;20860;-80
2022/04/09 03:04:26;;;;;;;2.80;2.50;;;;;;;5.69;81.50;96606.19;2252194;79;21263;-80
2022/04/09 03:07:28;;;;;;;4.53;2.80;;;;;;;5.74;81.53;96587.62;2252354;79;20940;-81
2022/04/09 03:10:30;;;;;;;11.27;3.60;;;;;;;5.70;81.32;96594.53;2252848;79;21271;-80
2022/04/09 03:13:30;;;;;;;3.07;2.73;;;;;;;5.71;81.73;96614.38;2252239;79;20876;-80
2022/04/09 03:16:32;;;;;;;2.60;2.33;;;;;;;5.75;81.53;96622.56;2252470;79;20891;-81
2022/04/09 03:19:31;;;;;;;6.30;2.37;;;;;;;5.80;81.43;96632.89;2251993;79;21313;-81
2022/04/09 03:22:31;;;;;;;3.47;2.40;;;;;;;5.85;81.56;96617.33;2252236;79;20879;-80
2022/04/09 03:25:32;;;;;;;3.23;2.43;;;;;;;5.91;81.29;96622.52;2252386;79;20943;-80
2022/04/09 03:28:32;;;;;;;4.73;2.53;;;;;;;5.93;81.07;96629.84;2252279;79;20938;-81
2022/04/09 03:31:32;;;;;;;4.20;3.13;;;;;;;5.98;81.08;96630.67;2253233;79;21018;-81
2022/04/09 03:34:33;;;;;;;7.53;3.70;;;;;;;6.02;81.19;96629.78;2255219;79;21109;-80
2022/04/09 03:37:36;;;;;;;3.77;3.27;;;;;;;6.01;81.02;96635.41;2255989;79;21321;-82
2022/04/09 03:40:38;;;;;;;7.00;3.50;;;;;;;6.02;81.14;96643.59;2234024;79;20876;-82
2022/04/09 03:43:39;;;;;;;6.53;3.90;;;;;;;6.05;81.11;96640.13;2255648;79;20899;-80
2022/04/09 03:46:39;;;;;;;4.73;4.07;;;;;;;6.04;80.83;96633.23;2256018;79;20863;-84
2022/04/09 03:49:40;;;;;;;3.50;2.90;;;;;;;6.04;81.16;96641.00;2256024;79;20902;-81
2022/04/09 03:52:40;;;;;;;7.83;7.07;;;;;;;6.01;80.99;96636.70;2257051;79;20923;-83
2022/04/09 03:55:40;;;;;;;10.87;6.73;;;;;;;5.96;81.05;96637.59;2256050;79;20959;-80
2022/04/09 03:58:43;;;;;;;6.90;5.00;;;;;;;5.85;81.81;96640.63;2254444;79;20900;-80
2022/04/09 04:01:44;;;;;;;4.07;3.37;;;;;;;5.79;81.95;96636.78;2254684;79;20940;-79
2022/04/09 04:04:42;;;;;;;3.80;3.50;;;;;;;5.73;82.06;96648.88;2255067;79;20931;-79
2022/04/09 04:07:42;;;;;;;4.57;3.37;;;;;;;5.63;82.06;96660.14;2254801;79;21287;-80
2022/04/09 04:10:42;;;;;;;4.60;3.43;;;;;;;5.60;82.44;96665.77;2254952;79;21342;-79
2022/04/09 04:13:43;;;;;;;4.53;3.67;;;;;;;5.57;82.91;96673.10;2254534;79;20946;-81
2022/04/09 04:16:43;;;;;;;9.40;4.67;;;;;;;5.51;83.07;96666.66;2255753;79;20910;-81
2022/04/09 04:19:44;;;;;;;4.63;4.00;;;;;;;7.25;100.00;96672.10;2254997;79;20927;-82
2022/04/09 04:22:46;;;;;;;5.80;3.60;;;;;;;8.09;86.93;96678.53;2255238;79;20871;-79
2022/04/09 04:25:47;;;;;;;5.97;3.47;;;;;;;8.70;97.21;96689.44;2254480;79;20977;-79
2022/04/09 04:28:48;;;;;;;5.70;3.30;;;;;;;11.50;97.48;96693.34;2255564;79;20911;-79
2022/04/09 04:31:47;;;;;;;3.13;2.83;;;;;;;13.38;87.37;96686.95;2255247;78;20946;-79
2022/04/09 04:34:50;;;;;;;5.03;3.37;;;;;;;14.82;80.07;96690.99;2255942;79;21211;-80
2022/04/09 04:37:51;;;;;;;5.20;3.00;;;;;;;15.99;74.24;96687.48;2254859;79;20879;-79
2022/04/09 04:40:51;;;;;;;2.77;2.58;;;;;;;16.67;70.57;96689.30;2254600;79;20891;-80
2022/04/09 04:43:52;;;;;;;4.60;4.20;;;;;;;16.64;65.53;96695.53;2254825;79;20883;-80
2022/04/09 04:46:52;;;;;;;4.90;4.40;;;;;;;16.44;64.64;96699.05;2255102;79;20931;-81
2022/04/09 04:49:52;;;;;;;6.03;4.58;;;;;;;16.14;64.69;96708.31;2254766;79;20899;-79
2022/04/09 04:52:52;;;;;;;3.67;3.37;;;;;;;15.56;58.61;96710.30;2254729;79;20919;-81
2022/04/09 04:55:53;;;;;;;3.92;2.92;;;;;;;13.17;57.59;96724.79;2254633;79;20942;-80
2022/04/09 04:58:54;;;;;;;5.00;2.72;;;;;;;11.12;60.00;96713.86;2254797;79;20867;-79
2022/04/09 05:01:54;;;;;;;4.17;3.50;;;;;;;9.70;62.90;96712.07;2254524;79;21259;-83
2022/04/09 05:04:54;;;;;;;3.23;2.93;;;;;;;8.69;65.27;96725.43;2254051;79;20868;-83
2022/04/09 05:07:55;;;;;;;3.23;2.90;;;;;;;7.98;67.89;96708.55;2254316;79;20860;-83
2022/04/09 05:10:55;;;;;;;3.10;2.77;;;;;;;7.43;69.26;96709.55;2254025;79;21315;-84
2022/04/09 05:13:55;;;;;;;5.00;4.47;;;;;;;7.05;71.39;96706.45;2254477;79;20915;-85
2022/04/09 05:16:57;;;;;;;4.83;3.30;;;;;;;6.76;72.10;96712.69;2254636;79;20979;-84
2022/04/09 05:19:56;;;;;;;4.40;3.53;;;;;;;6.53;73.59;96710.69;2254695;79;20883;-83
2022/04/09 05:22:57;;;;;;;3.80;3.50;;;;;;;6.30;74.82;96722.05;2254342;79;21291;-82
2022/04/09 05:25:57;;;;;;;10.23;7.20;;;;;;;6.10;76.79;96727.77;2254323;79;20939;-82
2022/04/09 05:28:57;;;;;;;8.20;6.20;;;;;;;5.95;77.57;96738.16;2255642;79;20946;-83
2022/04/09 05:31:59;;;;;;;7.60;6.37;;;;;;;5.82;78.52;96746.80;2255191;79;20915;-84
2022/04/09 05:34:58;;;;;;;9.87;5.50;;;;;;;5.69;79.65;96739.06;2256022;79;20900;-83
2022/04/09 05:37:59;;;;;;;5.87;4.33;;;;;;;5.55;80.91;96745.14;2254936;79;20947;-83
2022/04/09 05:40:59;;;;;;;6.70;5.90;;;;;;;5.39;81.53;96755.52;2254699;79;21247;-84
2022/04/09 05:43:59;;;;;;;8.03;6.17;;;;;;;5.24;82.50;96765.02;2255014;79;20868;-84
2022/04/09 05:47:00;;;;;;;6.00;5.07;;;;;;;5.11;84.06;96790.84;2254790;79;20922;-83
2022/04/09 05:50:00;;;;;;;9.47;6.40;;;;;;;4.98;84.03;96791.70;2254579;79;20895;-84
2022/04/09 05:53:03;;;;;;;7.03;4.50;;;;;;;4.89;85.23;96808.92;2255074;79;20896;-84
2022/04/09 05:56:04;;;;;;;6.67;5.07;;;;;;;4.75;86.14;96840.78;2254812;79;20986;-84
2022/04/09 05:59:07;;;;;;;4.13;3.60;;;;;;;4.63;85.37;96867.02;2255258;79;21306;-85
2022/04/09 06:02:07;;;;;;;3.83;3.20;;;;;;;4.44;86.28;96877.28;2255499;79;20970;-85
2022/04/09 06:05:07;;;;;;;3.37;3.07;;;;;;;4.30;87.22;96882.77;2255454;79;20899;-84
2022/04/09 06:08:08;;;;;;;4.70;4.30;;;;;;;4.19;87.25;96895.20;2254873;79;20910;-86
2022/04/09 06:11:08;;;;;;;5.63;4.30;;;;;;;4.10;87.55;96911.07;2254982;79;20907;-83
2022/04/09 06:14:08;;;;;;;5.20;4.70;;;;;;;4.00;88.48;96924.77;2255278;79;20927;-84
2022/04/09 06:17:12;;;;;;;5.13;4.60;;;;;;;4.00;88.48;96924.77;2255646;79;20907;-85
2022/04/09 06:20:12;;;;;;;5.43;4.93;;;;;;;3.96;89.11;96934.64;2255534;79;20935;-84
2022/04/09 06:23:12;;;;;;;6.77;5.93;;;;;;;3.85;88.72;96953.05;2255271;79;20924;-86
2022/04/09 06:26:13;;;;;;;6.33;5.70;;;;;;;3.68;88.81;96964.53;2255173;79;20967;-85
2022/04/09 06:29:13;;;;;;;8.93;6.37;;;;;;;3.57;88.87;96953.25;2255852;79;20907;-84
2022/04/09 06:32:13;;;;;;;8.07;7.23;;;;;;;3.47;89.45;96954.88;2255916;79;20947;-86
2022/04/09 06:35:14;;;;;;;9.10;7.20;;;;;;;3.40;89.99;96969.83;2256059;79;20923;-85
2022/04/09 06:38:15;;;;;;;8.47;7.67;;;;;;;3.34;90.42;96971.05;2256259;79;20957;-85
2022/04/09 06:41:18;;;;;;;8.20;7.40;;;;;;;3.27;91.08;96983.45;2255481;79;20975;-83
2022/04/09 06:44:20;;;;;;;8.28;7.10;;;;;;;3.21;90.47;97000.14;2218785;80;20963;-85
2022/04/09 06:47:21;;;;;;;8.33;7.23;;;;;;;3.15;90.30;97015.54;2248957;79;20974;-83
2022/04/09 06:50:23;;;;;;;7.53;6.03;;;;;;;3.10;90.30;97015.48;2233006;79;20868;-85
2022/04/09 06:53:23;;;;;;;7.43;6.77;;;;;;;3.04;90.35;97012.84;2255358;79;21262;-84
2022/04/09 06:56:26;;;;;;;7.60;6.90;;;;;;;3.03;90.49;97030.86;2254999;78;20934;-86
2022/04/09 06:59:26;;;;;;;8.30;7.37;;;;;;;2.97;90.87;97026.50;2232044;79;21289;-84
2022/04/09 07:02:27;;;;;;;8.70;7.90;;;;;;;2.99;91.38;97020.94;2255028;79;20944;-85
2022/04/09 07:05:27;;;;;;;10.03;8.60;;;;;;;3.08;91.50;97035.23;2255089;79;20939;-82
2022/04/09 07:08:33;;;;;;;10.87;9.87;;;;;;;3.12;91.24;97043.86;2255073;79;21273;-82
2022/04/09 07:11:34;;;;;;;11.43;10.33;;;;;;;3.14;91.35;97044.33;2255101;79;20899;-83
2022/04/09 07:14:34;;;;;;;13.00;11.57;;;;;;;3.13;91.45;97062.35;2254817;79;20911;-85
2022/04/09 07:17:35;;;;;;;10.97;9.97;;;;;;;3.13;91.00;97116.49;2255548;79;20868;-84
2022/04/09 07:20:37;;;;;;;11.27;10.17;;;;;;;3.02;90.27;97121.50;2232662;79;20911;-83
2022/04/09 07:23:37;;;;;;;12.77;9.93;;;;;;;3.04;90.75;97135.28;2254593;79;21345;-84
2022/04/09 07:26:38;;;;;;;11.00;9.90;;;;;;;3.10;90.50;97134.08;2254148;79;21009;-85
2022/04/09 07:29:40;;;;;;;8.83;8.07;;;;;;;3.21;90.36;97129.06;2254191;79;20899;-84
2022/04/09 07:32:43;;;;;;;9.63;8.63;;;;;;;3.31;89.54;97142.52;2231289;79;20900;-84
2022/04/09 07:35:43;;;;;;;9.90;8.73;;;;;;;3.41;89.33;97140.50;2231653;79;21296;-83
2022/04/09 07:38:43;;;;;;;11.30;8.47;;;;;;;3.58;89.29;97156.22;2251781;79;20924;-83
2022/04/09 07:41:44;;;;;;;8.87;7.97;;;;;;;3.65;87.98;97187.70;2252194;79;20896;-84
2022/04/09 07:44:52;;;;;;;8.33;7.50;;;;;;;3.70;88.75;97182.16;2231441;79;20896;-85
2022/04/09 07:47:51;;;;;;;9.90;7.13;;;;;;;3.73;88.10;97182.20;2231637;79;20871;-84
2022/04/09 07:50:54;;;;;;;8.27;6.77;;;;;;;3.83;87.51;97187.05;2251142;79;21371;-83
2022/04/09 07:53:57;;;;;;;7.07;6.37;;;;;;;3.89;87.53;97193.57;2230993;79;20884;-84
2022/04/09 07:57:01;;;;;;;8.10;6.57;;;;;;;3.89;87.27;97214.64;2230675;79;21298;-85
2022/04/09 08:00:01;;;;;;;8.07;7.23;;;;;;;3.95;87.02;97224.63;2251906;79;20872;-85
2022/04/09 08:03:01;;;;;;;9.00;7.93;;;;;;;3.98;86.80;97236.70;2252353;79;20938;-84
2022/04/09 08:06:04;;;;;;;9.37;8.47;;;;;;;3.99;86.49;97250.05;2251983;79;20923;-85
2022/04/09 08:09:02;;;;;;;16.60;9.97;;;;;;;4.03;86.69;97247.95;2251669;79;21058;-85
2022/04/09 08:12:04;;;;;;;8.00;6.73;;;;;;;4.15;87.19;97245.08;2251620;79;20891;-84
2022/04/09 08:15:07;;;;;;;9.43;8.23;;;;;;;4.22;85.79;97282.59;2207248;79;20899;-84
2022/04/09 08:18:10;;;;;;;10.83;8.30;;;;;;;4.28;86.13;97280.95;2252967;79;21322;-85
2022/04/09 08:21:09;;;;;;;10.00;7.50;;;;;;;4.31;85.25;97287.87;2231943;79;20871;-84
2022/04/09 08:24:13;;;;;;;7.60;6.47;;;;;;;4.35;85.55;97291.83;2252346;79;20883;-84
2022/04/09 08:27:16;;;;;;;8.07;6.37;;;;;;;4.42;84.94;97279.42;2252764;79;20871;-84
2022/04/09 08:30:16;;;;;;;8.87;7.03;;;;;;;4.45;83.54;97331.55;2232077;79;20904;-85
2022/04/09 08:33:21;;;;;;;7.90;7.07;;;;;;;4.38;84.67;97339.66;2233502;79;20923;-83
2022/04/09 08:36:21;;;;;;;8.93;7.30;;;;;;;4.32;85.04;97355.47;2254992;79;20951;-85
2022/04/09 08:39:22;;;;;;;13.83;8.33;;;;;;;4.28;84.71;97357.16;2255315;79;20891;-83
2022/04/09 08:42:26;;;;;;;11.13;7.30;;;;;;;4.57;85.29;97346.33;2255435;79;20915;-84
2022/04/09 08:45:25;;;;;;;11.83;8.17;;;;;;;4.68;84.39;97349.91;2255296;79;20891;-84
2022/04/09 08:48:26;;;;;;;11.90;8.67;;;;;;;4.80;83.63;97352.62;2255333;79;20947;-86
2022/04/09 08:51:31;;;;;;;12.13;8.07;;;;;;;4.96;83.21;97351.92;2232274;79;20896;-84
2022/04/09 08:54:34;;;;;;;9.60;7.00;;;;;;;5.19;82.45;97347.39;2254641;79;21093;-84
2022/04/09 08:57:32;;;;;;;8.77;7.87;;;;;;;5.35;81.59;97363.52;2254759;79;20910;-86
2022/04/09 09:00:35;;;;;;;12.97;7.93;;;;;;;5.57;81.93;97357.67;2254290;79;21256;-86
2022/04/09 09:03:36;;;;;;;10.53;7.30;;;;;;;5.76;80.30;97360.83;2254091;79;20888;-84
2022/04/09 09:06:39;;;;;;;9.47;7.30;;;;;;;5.84;79.84;97369.08;2253907;79;20966;-85
2022/04/09 09:09:36;;;;;;;9.57;7.30;;;;;;;5.92;80.82;97380.39;2255179;79;21014;-86
2022/04/09 09:12:38;;;;;;;10.83;7.70;;;;;;;6.01;79.83;97380.02;2255155;79;20883;-85
2022/04/09 09:15:37;;;;;;;9.97;7.47;;;;;;;5.95;79.84;97383.00;2255600;79;20927;-86
2022/04/09 09:18:38;;;;;;;11.23;7.97;;;;;;;6.01;79.42;97387.80;2255090;79;20943;-85
2022/04/09 09:21:40;;;;;;;11.53;7.57;;;;;;;6.12;78.55;97391.77;2232899;79;20932;-86
2022/04/09 09:24:40;;;;;;;10.97;8.17;;;;;;;6.01;78.65;97402.03;2255269;79;21716;-85
2022/04/09 09:27:41;;;;;;;12.30;8.67;;;;;;;5.95;78.98;97413.66;2255279;79;20884;-86
2022/04/09 09:30:41;;;;;;;13.50;9.27;;;;;;;5.81;79.52;97415.67;2254731;79;20911;-86
2022/04/09 09:33:42;;;;;;;13.33;8.73;;;;;;;5.80;80.15;97419.98;2254301;79;20978;-86
2022/04/09 09:36:43;;;;;;;12.47;9.67;;;;;;;5.92;79.57;97412.33;2254647;79;20933;-86
2022/04/09 09:39:43;;;;;;;9.17;7.93;;;;;;;6.11;78.99;97416.38;2254523;79;21243;-86
2022/04/09 09:42:43;;;;;;;12.67;9.40;;;;;;;6.36;78.58;97416.53;2254498;79;20895;-85
2022/04/09 09:45:43;;;;;;;13.57;9.53;;;;;;;6.70;77.97;97405.03;2254664;79;20907;-86
2022/04/09 09:48:45;;;;;;;12.00;9.60;;;;;;;7.10;78.07;97407.78;2231817;79;20896;-82
2022/04/09 09:51:46;;;;;;;16.77;9.77;;;;;;;7.41;77.58;97431.64;2254507;79;20915;-86
2022/04/09 09:54:46;;;;;;;11.73;9.47;;;;;;;7.45;76.58;97434.68;2255221;79;20940;-85
2022/04/09 09:57:52;;;;;;;16.63;10.10;;;;;;;7.51;76.46;97446.80;2255154;79;20903;-87
2022/04/09 10:00:50;;;;;;;14.63;9.97;;;;;;;7.54;77.34;97466.28;2254789;79;20910;-85
2022/04/09 10:03:53;;;;;;;16.07;10.13;;;;;;;7.53;76.08;97474.94;2232049;79;20903;-81
2022/04/09 10:06:53;;;;;;;12.83;8.53;;;;;;;7.62;74.52;97487.51;2254415;79;20923;-86
2022/04/09 10:09:56;;;;;;;13.90;9.40;;;;;;;7.60;74.00;97477.55;2254966;79;20899;-85
2022/04/09 10:12:57;;;;;;;9.47;8.27;;;;;;;7.79;72.73;97495.75;2255126;79;20955;-84
2022/04/09 10:16:00;;;;;;;16.47;9.00;;;;;;;8.02;72.46;97497.97;2255817;79;21261;-86
2022/04/09 10:19:00;;;;;;;13.77;8.57;;;;;;;8.14;72.72;97507.07;2232710;79;20907;-86
2022/04/09 10:22:00;;;;;;;11.83;8.67;;;;;;;7.94;71.55;97511.39;2254678;79;20899;-86
2022/04/09 10:25:00;;;;;;;12.90;8.13;;;;;;;7.87;70.94;97505.76;2254480;79;20942;-85
2022/04/09 10:28:01;;;;;;;13.50;7.10;;;;;;;7.99;70.43;97512.27;2254447;79;21239;-83
2022/04/09 10:31:01;;;;;;;13.47;7.70;;;;;;;8.04;68.44;97518.77;2254840;79;20926;-85
2022/04/09 10:34:02;;;;;;;13.40;7.97;;;;;;;8.02;67.77;97517.46;2254785;79;20979;-85
2022/04/09 10:37:03;;;;;;;10.03;7.00;;;;;;;8.27;68.46;97517.03;2255650;79;20884;-85
2022/04/09 10:40:04;;;;;;;21.03;8.10;;;;;;;8.59;67.01;97519.64;2255626;79;20945;-84
2022/04/09 10:43:06;;;;;;;13.27;7.83;;;;;;;8.70;67.04;97532.66;2255444;79;20943;-84
2022/04/09 10:46:05;;;;;;;6.90;6.10;;;;;;;8.67;67.00;97533.93;2254727;79;21283;-85
2022/04/09 10:49:05;;;;;;;12.20;5.80;;;;;;;8.58;66.83;97543.91;2254685;79;21062;-85
2022/04/09 10:52:06;;;;;;;10.57;5.70;;;;;;;8.53;66.00;97548.25;2254231;79;20939;-84
2022/04/09 10:55:09;;;;;;;10.47;5.23;;;;;;;8.53;61.71;97556.05;2254343;79;20997;-83
2022/04/09 10:58:10;;;;;;;8.53;5.13;;;;;;;8.73;64.61;97547.83;2255005;79;20926;-85
2022/04/09 11:01:10;;;;;;;13.53;6.03;;;;;;;8.94;62.61;97559.93;2254818;79;20910;-84
2022/04/09 11:04:12;;;;;;;17.47;6.40;;;;;;;9.11;62.86;97561.19;2254840;79;20899;-84
2022/04/09 11:07:14;;;;;;;8.00;4.83;;;;;;;9.25;62.18;97565.92;2233050;79;20911;-86
2022/04/09 11:10:16;;;;;;;10.13;5.47;;;;;;;9.43;62.92;97571.49;2254986;79;20899;-84
2022/04/09 11:13:20;;;;;;;12.97;6.00;;;;;;;9.36;58.98;97581.07;2254670;79;20907;-84
2022/04/09 11:16:22;;;;;;;10.97;6.13;;;;;;;9.11;61.46;97588.52;2254824;79;20871;-84
2022/04/09 11:19:22;;;;;;;8.97;5.13;;;;;;;9.10;60.55;97588.09;2255350;79;20934;-84
2022/04/09 11:22:23;;;;;;;12.03;6.63;;;;;;;9.06;60.37;97578.56;2255313;79;21267;-84
2022/04/09 11:25:24;;;;;;;17.10;7.87;;;;;;;9.02;59.44;97586.81;2255221;79;20903;-83
2022/04/09 11:28:24;;;;;;;20.17;12.43;;;;;;;9.24;59.75;97589.79;2255168;79;20939;-85
2022/04/09 11:31:24;;;;;;;13.93;7.20;;;;;;;9.52;59.79;97578.84;2255337;79;20890;-83
2022/04/09 11:34:25;;;;;;;15.77;7.67;;;;;;;9.70;58.10;97593.98;2255441;77;20931;-84
2022/04/09 11:37:26;;;;;;;9.77;6.63;;;;;;;9.73;56.97;97590.93;2255532;78;20907;-83
2022/04/09 11:40:25;;;;;;;12.27;6.33;;;;;;;9.68;56.42;97597.91;2255842;79;21212;-83
2022/04/09 11:43:27;;;;;;;8.90;4.23;;;;;;;9.55;56.47;97590.58;2256280;79;20934;-84
2022/04/09 11:46:32;;;;;;;8.33;5.17;;;;;;;9.58;55.85;97588.40;2255960;79;20888;-83
2022/04/09 11:49:29;;;;;;;6.37;4.23;;;;;;;9.58;57.13;97596.21;2255543;79;20959;-84
2022/04/09 11:52:29;;;;;;;8.03;5.00;;;;;;;9.55;56.26;97605.34;2223066;79;20927;-84
2022/04/09 11:55:30;;;;;;;7.00;4.30;;;;;;;9.58;55.45;97623.13;2254928;78;21172;-83
2022/04/09 11:58:30;;;;;;;6.63;4.90;;;;;;;9.43;55.96;97636.17;2254781;79;20903;-85
2022/04/09 12:01:30;;;;;;;11.93;5.97;;;;;;;9.17;55.08;97637.98;2255538;79;20947;-83
2022/04/09 12:04:31;;;;;;;11.47;7.00;;;;;;;9.06;56.55;97654.05;2254760;79;20935;-84
2022/04/09 12:07:32;;;;;;;14.47;6.60;;;;;;;8.85;56.63;97652.33;2254430;79;20936;-83
2022/04/09 12:10:32;;;;;;;10.03;5.80;;;;;;;8.74;57.05;97638.02;2255488;79;20931;-83
2022/04/09 12:13:33;;;;;;;10.13;6.67;;;;;;;8.70;56.79;97624.58;2256049;79;20887;-84
2022/04/09 12:16:33;;;;;;;15.40;7.37;;;;;;;8.73;57.28;97627.18;2256389;79;20888;-85
2022/04/09 12:19:33;;;;;;;14.73;6.80;;;;;;;8.74;58.17;97627.61;2256150;79;20891;-85
2022/04/09 12:22:36;;;;;;;8.40;5.10;;;;;;;8.90;57.39;97628.03;2255558;78;20935;-83
2022/04/09 12:25:37;;;;;;;9.67;5.27;;;;;;;9.04;56.55;97636.27;2255136;79;20934;-84
2022/04/09 12:28:37;;;;;;;10.80;4.57;;;;;;;9.11;55.58;97637.98;2255348;79;20888;-86
2022/04/09 12:31:38;;;;;;;8.83;4.50;;;;;;;9.10;55.12;97637.55;2255354;79;21283;-84
2022/04/09 12:34:41;;;;;;;8.63;3.77;;;;;;;9.11;54.87;97666.63;2255306;78;20975;-84
2022/04/09 12:37:41;;;;;;;4.77;3.20;;;;;;;9.09;55.05;97674.86;2255854;79;20895;-82
2022/04/09 12:40:44;;;;;;;7.97;2.97;;;;;;;9.06;53.81;97689.19;2224834;79;20864;-83
2022/04/09 12:43:47;;;;;;;11.23;5.10;;;;;;;9.03;54.44;97693.09;2225040;79;20899;-83
2022/04/09 12:46:46;;;;;;;9.70;6.00;;;;;;;9.00;54.72;97699.59;2256126;79;20899;-85
2022/04/09 12:49:47;;;;;;;8.07;5.27;;;;;;;8.90;55.13;97703.50;2256221;79;20927;-84
2022/04/09 12:52:47;;;;;;;8.00;3.97;;;;;;;8.74;55.53;97705.66;2256274;79;20903;-83
2022/04/09 12:55:48;;;;;;;5.57;3.17;;;;;;;8.41;55.62;97722.48;2256139;79;20962;-83
2022/04/09 12:58:49;;;;;;;3.57;2.60;;;;;;;7.85;53.91;97740.01;2256265;79;20887;-83
2022/04/09 13:01:50;;;;;;;9.30;4.37;;;;;;;7.44;51.39;97729.35;2256182;79;20895;-83
2022/04/09 13:04:49;;;;;;;9.57;5.53;;;;;;;7.29;53.93;97724.50;2256297;79;20895;-83
2022/04/09 13:07:49;;;;;;;12.23;5.70;;;;;;;7.39;54.48;97719.38;2255971;79;20935;-83
2022/04/09 13:10:50;;;;;;;12.00;6.50;;;;;;;7.47;54.25;97721.58;2256500;79;20899;-85
2022/04/09 13:13:50;;;;;;;23.50;11.10;;;;;;;7.65;54.70;97719.95;2256611;78;20923;-84
2022/04/09 13:16:51;;;;;;;19.27;11.10;;;;;;;7.79;55.79;97726.52;2256503;79;20904;-84
2022/04/09 13:19:51;;;;;;;22.03;12.27;;;;;;;7.90;55.24;97733.97;2257046;78;20923;-85
2022/04/09 13:22:51;;;;;;;17.57;11.33;;;;;;;8.09;56.18;97732.31;2256650;78;20927;-84
2022/04/09 13:25:53;;;;;;;21.67;12.30;;;;;;;8.16;56.11;97727.58;2256161;79;20912;-84
2022/04/09 13:28:53;;;;;;;17.87;10.17;;;;;;;8.26;56.72;97729.34;2256611;78;20946;-85
2022/04/09 13:31:53;;;;;;;18.40;11.77;;;;;;;8.39;56.44;97719.02;2256489;78;21239;-85
2022/04/09 13:34:54;;;;;;;17.23;9.63;;;;;;;8.59;57.20;97715.59;2250952;78;20950;-85
2022/04/09 13:37:54;;;;;;;13.00;7.60;;;;;;;8.82;56.81;97722.58;2249643;79;20974;-84
2022/04/09 13:40:55;;;;;;;12.60;7.60;;;;;;;9.01;55.97;97713.05;2249372;79;20892;-85
2022/04/09 13:43:55;;;;;;;14.93;8.07;;;;;;;9.25;56.54;97711.73;2249210;79;20901;-84
2022/04/09 13:46:56;;;;;;;15.07;8.90;;;;;;;9.44;56.41;97708.23;2249651;79;20896;-86
2022/04/09 13:49:56;;;;;;;16.23;9.07;;;;;;;9.68;55.98;97714.29;2249343;79;20884;-85
2022/04/09 13:52:56;;;;;;;22.00;10.33;;;;;;;10.01;55.50;97723.30;2249514;79;20903;-85
2022/04/09 13:56:01;;;;;;;19.97;8.50;;;;;;;10.16;55.70;97720.63;2249190;79;20989;-84
2022/04/09 13:59:00;;;;;;;14.90;8.67;;;;;;;10.32;54.09;97720.59;2249090;79;20892;-85
2022/04/09 14:02:06;;;;;;;6.57;4.50;;;;;;;10.42;54.88;97730.13;2226926;79;20868;-86
2022/04/09 14:05:07;;;;;;;10.13;6.00;;;;;;;10.37;50.36;97728.83;2249346;79;20927;-85
2022/04/09 14:08:06;;;;;;;7.57;4.93;;;;;;;10.35;52.30;97738.83;2249041;79;20915;-84
2022/04/09 14:11:07;;;;;;;5.83;3.63;;;;;;;10.35;48.20;97734.92;2249106;79;20931;-84
2022/04/09 14:14:08;;;;;;;10.67;4.57;;;;;;;10.18;46.02;97733.23;2249275;79;20912;-83
2022/04/09 14:17:09;;;;;;;4.67;2.97;;;;;;;9.97;45.87;97739.83;2248925;79;21007;-85